EST,Max TemperatureF,Mean TemperatureF,Min TemperatureF,Max Dew PointF,MeanDew PointF,Min DewpointF,Max Humidity, Mean Humidity, Min Humidity, Max Sea Level PressureIn, Mean Sea Level PressureIn, Min Sea Level PressureIn, Max VisibilityMiles, Mean VisibilityMiles, Min VisibilityMiles, Max Wind SpeedMPH, Mean Wind SpeedMPH, Max Gust SpeedMPH,PrecipitationIn, CloudCover, Events, WindDirDegrees
2013-11-1,73,68,64,68,65,63,100,89,73,29.87,29.73,29.65,10,9,4,22,15,33,0.00,3,Rain,211
2013-11-2,71,62,52,65,56,43,100,86,41,29.90,29.73,29.67,10,7,0,8,1,17,0.00,4,Fog-Rain,328
2013-11-3,57,50,42,45,38,28,83,65,36,30.46,30.11,29.90,10,10,10,15,3,23,0.00,1,,336
2013-11-4,48,40,32,30,26,23,93,61,37,30.66,30.59,30.49,10,10,10,14,5,17,0.00,1,,38
2013-11-5,62,50,37,49,41,31,93,78,52,30.64,30.58,30.52,10,10,7,9,2,,0.00,4,,101
2013-11-6,69,60,51,59,51,48,93,79,52,30.51,30.36,30.13,10,10,10,12,3,16,0.00,6,,186
2013-11-7,66,58,49,64,53,32,100,85,51,30.12,30.01,29.88,10,10,5,17,11,30,0.00,5,Rain,262
2013-11-8,53,46,39,32,29,25,70,53,38,30.35,30.20,30.08,10,10,10,21,10,29,0.00,2,,325
2013-11-9,55,44,32,39,33,29,100,69,38,30.39,30.28,30.09,10,10,10,12,2,18,0.00,0,,223
2013-11-10,66,56,45,41,35,30,76,55,28,30.24,30.10,29.97,10,10,10,21,5,30,0.00,0,,276
2013-11-11,55,47,39,41,34,31,75,58,44,30.34,30.22,30.07,10,10,10,15,6,20,0.00,1,,261
2013-11-12,53,44,35,41,29,16,71,53,42,30.41,30.19,30.02,10,10,5,17,8,33,0.00,4,Rain,344
2013-11-13,44,38,32,25,22,16,75,55,39,30.48,30.43,30.41,10,10,10,18,8,28,0.00,2,,345
2013-11-14,56,42,28,43,29,21,88,69,26,30.43,30.36,30.29,10,10,7,10,2,,0.00,1,,224
2013-11-15,57,46,36,40,33,30,83,68,38,30.33,30.28,30.25,10,10,10,9,3,,0.00,2,,218
2013-11-16,53,50,46,54,50,42,100,99,83,30.37,30.31,30.28,10,5,1,6,0,,0.18,7,Rain,106
2013-11-17,68,59,50,64,56,50,100,95,68,30.29,30.14,29.85,10,6,0,15,3,20,0.00,7,Fog,181
2013-11-18,69,61,53,66,49,30,100,71,31,29.94,29.82,29.74,10,10,5,20,10,25,0.08,4,Rain,269
2013-11-19,52,45,38,31,29,27,65,51,41,30.40,30.14,29.95,10,10,10,21,12,32,0.00,1,,345
2013-11-20,48,40,32,32,28,25,96,69,50,30.60,30.52,30.39,10,10,10,10,3,,0.00,1,,55
2013-11-21,56,44,32,45,36,29,100,84,62,30.60,30.54,30.43,10,10,10,6,1,,0.00,3,,54
2013-11-22,62,54,45,57,51,46,100,96,72,30.43,30.24,30.03,10,9,4,10,2,17,0.05,6,Rain,217
2013-11-23,56,46,36,56,37,21,100,67,37,30.18,30.10,30.03,10,10,7,26,10,38,0.00,2,,341
2013-11-24,35,32,27,20,11,9,54,43,35,30.55,30.37,30.19,10,10,10,23,19,37,0.00,2,,325
2013-11-25,36,30,24,21,16,12,69,55,38,30.62,30.51,30.42,10,10,10,13,8,17,0.00,1,,297
2013-11-26,62,48,36,62,34,18,100,73,42,30.42,30.16,29.59,10,8,3,20,8,28,0.38,5,Rain,184
2013-11-27,65,49,33,65,42,19,100,90,53,30.03,29.66,29.51,10,6,2,29,18,46,0.50,7,Rain,302
2013-11-28,39,32,26,25,19,16,74,58,42,30.53,30.34,30.05,10,10,10,20,12,32,0.00,2,,314
2013-11-29,42,34,26,28,24,21,100,69,42,30.76,30.61,30.51,10,10,10,12,1,18,0.00,2,,357
2013-11-30,41,32,24,30,24,19,100,76,56,30.76,30.65,30.43,10,10,10,9,1,,0.00,1,,53